sensor_id;sensor_type;location;lat;lon;timestamp;pressure;altitude;pressure_sealevel;temperature;humidity
37142;BME280;23041;49.816;20.092;2022-09-02T00:00:56;98174.09;;;8.89;63.18
37142;BME280;23041;49.816;20.092;2022-09-02T00:03:29;98172.70;;;8.92;63.23
37142;BME280;23041;49.816;20.092;2022-09-02T00:05:59;98165.29;;;8.89;63.30
37142;BME280;23041;49.816;20.092;2022-09-02T00:08:26;98168.14;;;8.79;63.34
37142;BME280;23041;49.816;20.092;2022-09-02T00:10:54;98158.33;;;8.59;63.43
37142;BME280;23041;49.816;20.092;2022-09-02T00:13:20;98156.42;;;8.56;63.51
37142;BME280;23041;49.816;20.092;2022-09-02T00:15:47;98162.48;;;8.55;63.56
37142;BME280;23041;49.816;20.092;2022-09-02T00:18:15;98161.60;;;8.66;63.64
37142;BME280;23041;49.816;20.092;2022-09-02T00:20:44;98164.44;;;8.55;63.64
37142;BME280;23041;49.816;20.092;2022-09-02T00:23:11;98163.22;;;8.59;63.70
37142;BME280;23041;49.816;20.092;2022-09-02T00:25:39;98160.86;;;8.62;63.76
37142;BME280;23041;49.816;20.092;2022-09-02T00:28:06;98157.16;;;8.60;63.82
37142;BME280;23041;49.816;20.092;2022-09-02T00:30:34;98162.09;;;8.53;63.87
37142;BME280;23041;49.816;20.092;2022-09-02T00:33:01;98162.13;;;8.50;63.93
37142;BME280;23041;49.816;20.092;2022-09-02T00:35:27;98163.12;;;8.48;63.95
37142;BME280;23041;49.816;20.092;2022-09-02T00:37:54;98161.99;;;8.42;64.01
37142;BME280;23041;49.816;20.092;2022-09-02T00:40:21;98148.03;;;8.26;64.11
37142;BME280;23041;49.816;20.092;2022-09-02T00:42:49;98146.27;;;8.27;64.18
37142;BME280;23041;49.816;20.092;2022-09-02T00:45:16;98146.46;;;8.28;64.26
37142;BME280;23041;49.816;20.092;2022-09-02T00:47:44;98148.56;;;8.36;64.35
37142;BME280;23041;49.816;20.092;2022-09-02T00:50:14;98149.34;;;8.36;64.40
37142;BME280;23041;49.816;20.092;2022-09-02T00:52:45;98146.84;;;8.34;64.43
37142;BME280;23041;49.816;20.092;2022-09-02T00:55:16;98139.56;;;8.39;64.51
37142;BME280;23041;49.816;20.092;2022-09-02T00:57:48;98142.84;;;8.42;64.58
37142;BME280;23041;49.816;20.092;2022-09-02T01:00:24;98140.34;;;8.39;64.65
37142;BME280;23041;49.816;20.092;2022-09-02T01:02:58;98139.38;;;8.38;64.70
37142;BME280;23041;49.816;20.092;2022-09-02T01:05:29;98135.89;;;8.34;64.74
37142;BME280;23041;49.816;20.092;2022-09-02T01:07:57;98139.44;;;8.27;64.76
37142;BME280;23041;49.816;20.092;2022-09-02T01:10:30;98139.67;;;8.21;64.82
37142;BME280;23041;49.816;20.092;2022-09-02T01:13:03;98132.58;;;8.01;64.86
37142;BME280;23041;49.816;20.092;2022-09-02T01:15:34;98135.73;;;7.96;64.93
37142;BME280;23041;49.816;20.092;2022-09-02T01:18:04;98133.20;;;7.94;64.99
37142;BME280;23041;49.816;20.092;2022-09-02T01:20:32;98147.41;;;8.00;65.03
37142;BME280;23041;49.816;20.092;2022-09-02T01:22:59;98144.09;;;8.01;65.08
37142;BME280;23041;49.816;20.092;2022-09-02T01:25:30;98146.08;;;7.97;65.12
37142;BME280;23041;49.816;20.092;2022-09-02T01:28:01;98155.06;;;7.97;65.18
37142;BME280;23041;49.816;20.092;2022-09-02T01:30:32;98157.95;;;8.02;65.24
37142;BME280;23041;49.816;20.092;2022-09-02T01:32:59;98153.27;;;8.02;65.32
37142;BME280;23041;49.816;20.092;2022-09-02T01:35:26;98156.01;;;7.99;65.39
37142;BME280;23041;49.816;20.092;2022-09-02T01:37:55;98149.20;;;7.95;65.44
37142;BME280;23041;49.816;20.092;2022-09-02T01:40:24;98141.92;;;7.74;65.50
37142;BME280;23041;49.816;20.092;2022-09-02T01:42:54;98139.78;;;7.70;65.60
37142;BME280;23041;49.816;20.092;2022-09-02T01:45:23;98142.91;;;7.72;65.67
37142;BME280;23041;49.816;20.092;2022-09-02T01:47:50;98154.52;;;7.91;65.77
37142;BME280;23041;49.816;20.092;2022-09-02T01:50:17;98151.75;;;7.98;65.83
37142;BME280;23041;49.816;20.092;2022-09-02T01:52:44;98149.02;;;7.94;65.89
37142;BME280;23041;49.816;20.092;2022-09-02T01:55:11;98149.17;;;7.99;65.95
37142;BME280;23041;49.816;20.092;2022-09-02T01:57:37;98145.07;;;8.02;66.01
37142;BME280;23041;49.816;20.092;2022-09-02T02:00:07;98144.05;;;8.08;66.06
37142;BME280;23041;49.816;20.092;2022-09-02T02:02:35;98147.58;;;8.05;66.09
37142;BME280;23041;49.816;20.092;2022-09-02T02:05:01;98145.62;;;8.05;66.15
37142;BME280;23041;49.816;20.092;2022-09-02T02:07:30;98147.18;;;8.06;66.18
37142;BME280;23041;49.816;20.092;2022-09-02T02:09:56;98150.19;;;7.97;66.18
37142;BME280;23041;49.816;20.092;2022-09-02T02:12:23;98147.26;;;7.96;66.21
37142;BME280;23041;49.816;20.092;2022-09-02T02:14:49;98135.03;;;7.85;66.25
37142;BME280;23041;49.816;20.092;2022-09-02T02:17:16;98140.69;;;7.86;66.31
37142;BME280;23041;49.816;20.092;2022-09-02T02:19:42;98135.58;;;7.88;66.37
37142;BME280;23041;49.816;20.092;2022-09-02T02:22:09;98140.63;;;7.93;66.41
37142;BME280;23041;49.816;20.092;2022-09-02T02:24:36;98143.94;;;7.93;66.42
37142;BME280;23041;49.816;20.092;2022-09-02T02:27:03;98141.59;;;7.95;66.46
37142;BME280;23041;49.816;20.092;2022-09-02T02:29:30;98141.59;;;7.95;66.49
37142;BME280;23041;49.816;20.092;2022-09-02T02:31:56;98132.84;;;7.92;66.54
37142;BME280;23041;49.816;20.092;2022-09-02T02:34:23;98137.57;;;7.84;66.55
37142;BME280;23041;49.816;20.092;2022-09-02T02:36:49;98135.23;;;7.83;66.58
37142;BME280;23041;49.816;20.092;2022-09-02T02:39:16;98138.19;;;7.80;66.59
37142;BME280;23041;49.816;20.092;2022-09-02T02:41:43;98137.22;;;7.75;66.61
37142;BME280;23041;49.816;20.092;2022-09-02T02:44:09;98131.39;;;7.73;66.63
37142;BME280;23041;49.816;20.092;2022-09-02T02:46:36;98124.66;;;7.52;66.68
37142;BME280;23041;49.816;20.092;2022-09-02T02:49:03;98120.98;;;7.50;66.77
37142;BME280;23041;49.816;20.092;2022-09-02T02:51:31;98128.36;;;7.53;66.83
37142;BME280;23041;49.816;20.092;2022-09-02T02:53:59;98132.82;;;7.62;66.86
37142;BME280;23041;49.816;20.092;2022-09-02T02:56:27;98134.58;;;7.61;66.88
37142;BME280;23041;49.816;20.092;2022-09-02T02:58:55;98129.92;;;7.54;66.88
37142;BME280;23041;49.816;20.092;2022-09-02T03:01:22;98127.19;;;7.54;66.92
37142;BME280;23041;49.816;20.092;2022-09-02T03:03:48;98127.94;;;7.58;66.95
37142;BME280;23041;49.816;20.092;2022-09-02T03:06:16;98127.58;;;7.56;66.97
37142;BME280;23041;49.816;20.092;2022-09-02T03:08:43;98128.39;;;7.50;66.99
37142;BME280;23041;49.816;20.092;2022-09-02T03:11:10;98127.83;;;7.43;67.03
37142;BME280;23041;49.816;20.092;2022-09-02T03:13:37;98128.44;;;7.35;67.04
37142;BME280;23041;49.816;20.092;2022-09-02T03:16:04;98130.83;;;7.23;67.07
37142;BME280;23041;49.816;20.092;2022-09-02T03:18:32;98123.28;;;7.05;67.13
37142;BME280;23041;49.816;20.092;2022-09-02T03:20:59;98121.94;;;7.01;67.21
37142;BME280;23041;49.816;20.092;2022-09-02T03:23:26;98125.64;;;6.99;67.28
37142;BME280;23041;49.816;20.092;2022-09-02T03:25:52;98134.77;;;7.15;67.35
37142;BME280;23041;49.816;20.092;2022-09-02T03:28:19;98133.36;;;7.22;67.43
37142;BME280;23041;49.816;20.092;2022-09-02T03:30:46;98131.05;;;7.20;67.44
37142;BME280;23041;49.816;20.092;2022-09-02T03:33:12;98127.36;;;7.12;67.45
37142;BME280;23041;49.816;20.092;2022-09-02T03:35:40;98133.63;;;7.09;67.48
37142;BME280;23041;49.816;20.092;2022-09-02T03:38:09;98130.69;;;7.04;67.51
37142;BME280;23041;49.816;20.092;2022-09-02T03:40:37;98133.44;;;7.01;67.52
37142;BME280;23041;49.816;20.092;2022-09-02T03:43:05;98136.55;;;7.06;67.59
37142;BME280;23041;49.816;20.092;2022-09-02T03:45:31;98126.40;;;7.03;67.63
37142;BME280;23041;49.816;20.092;2022-09-02T03:47:58;98136.75;;;7.00;67.67
37142;BME280;23041;49.816;20.092;2022-09-02T03:50:28;98119.26;;;6.83;67.73
37142;BME280;23041;49.816;20.092;2022-09-02T03:52:57;98129.21;;;6.78;67.80
37142;BME280;23041;49.816;20.092;2022-09-02T03:55:25;98135.05;;;6.84;67.90
37142;BME280;23041;49.816;20.092;2022-09-02T03:57:51;98136.77;;;6.93;67.93
37142;BME280;23041;49.816;20.092;2022-09-02T04:00:20;98142.02;;;6.99;67.97
37142;BME280;23041;49.816;20.092;2022-09-02T04:02:52;98138.90;;;7.01;68.00
37142;BME280;23041;49.816;20.092;2022-09-02T04:05:21;98148.02;;;7.09;68.01
37142;BME280;23041;49.816;20.092;2022-09-02T04:07:50;98151.94;;;7.05;68.05
37142;BME280;23041;49.816;20.092;2022-09-02T04:10:19;98155.45;;;7.05;68.06
37142;BME280;23041;49.816;20.092;2022-09-02T04:12:47;98151.36;;;7.05;68.08
37142;BME280;23041;49.816;20.092;2022-09-02T04:15:14;98157.22;;;7.00;68.06
37142;BME280;23041;49.816;20.092;2022-09-02T04:17:41;98159.56;;;6.98;68.09
37142;BME280;23041;49.816;20.092;2022-09-02T04:20:10;98164.44;;;6.91;68.09
37142;BME280;23041;49.816;20.092;2022-09-02T04:22:38;98162.33;;;6.91;68.12
37142;BME280;23041;49.816;20.092;2022-09-02T04:25:06;98156.28;;;6.81;68.18
37142;BME280;23041;49.816;20.092;2022-09-02T04:27:34;98157.44;;;6.87;68.27
37142;BME280;23041;49.816;20.092;2022-09-02T04:30:01;98157.62;;;6.91;68.32
37142;BME280;23041;49.816;20.092;2022-09-02T04:32:28;98168.72;;;7.07;68.38
37142;BME280;23041;49.816;20.092;2022-09-02T04:34:56;98170.23;;;7.25;68.46
37142;BME280;23041;49.816;20.092;2022-09-02T04:37:22;98167.42;;;7.39;68.50
37142;BME280;23041;49.816;20.092;2022-09-02T04:39:49;98167.77;;;7.52;68.56
37142;BME280;23041;49.816;20.092;2022-09-02T04:42:15;98167.36;;;7.61;68.59
37142;BME280;23041;49.816;20.092;2022-09-02T04:44:42;98167.50;;;7.69;68.65
37142;BME280;23041;49.816;20.092;2022-09-02T04:47:08;98169.39;;;7.83;68.70
37142;BME280;23041;49.816;20.092;2022-09-02T04:49:34;98169.13;;;7.96;68.75
37142;BME280;23041;49.816;20.092;2022-09-02T04:52:01;98161.59;;;8.10;68.77
37142;BME280;23041;49.816;20.092;2022-09-02T04:54:28;98159.71;;;8.30;68.83
37142;BME280;23041;49.816;20.092;2022-09-02T04:56:55;98149.72;;;8.38;68.91
37142;BME280;23041;49.816;20.092;2022-09-02T04:59:22;98156.53;;;8.64;68.99
37142;BME280;23041;49.816;20.092;2022-09-02T05:01:48;98155.17;;;8.86;69.03
37142;BME280;23041;49.816;20.092;2022-09-02T05:04:15;98161.99;;;9.24;69.05
37142;BME280;23041;49.816;20.092;2022-09-02T05:06:42;98154.00;;;9.55;69.05
37142;BME280;23041;49.816;20.092;2022-09-02T05:09:08;98151.84;;;9.85;69.06
37142;BME280;23041;49.816;20.092;2022-09-02T05:11:35;98159.25;;;10.18;69.06
37142;BME280;23041;49.816;20.092;2022-09-02T05:14:03;98156.30;;;10.44;69.02
37142;BME280;23041;49.816;20.092;2022-09-02T05:16:34;98151.36;;;10.71;68.99
37142;BME280;23041;49.816;20.092;2022-09-02T05:19:04;98152.30;;;10.95;68.92
37142;BME280;23041;49.816;20.092;2022-09-02T05:21:31;98148.61;;;11.25;68.84
37142;BME280;23041;49.816;20.092;2022-09-02T05:23:57;98145.14;;;11.41;68.78
37142;BME280;23041;49.816;20.092;2022-09-02T05:26:25;98141.12;;;11.65;68.72
37142;BME280;23041;49.816;20.092;2022-09-02T05:28:51;98141.99;;;11.98;68.63
37142;BME280;23041;49.816;20.092;2022-09-02T05:31:19;98141.09;;;12.29;68.54
37142;BME280;23041;49.816;20.092;2022-09-02T05:33:46;98144.38;;;12.48;68.37
37142;BME280;23041;49.816;20.092;2022-09-02T05:36:19;98140.41;;;12.65;68.20
37142;BME280;23041;49.816;20.092;2022-09-02T05:38:47;98145.39;;;12.79;68.03
37142;BME280;23041;49.816;20.092;2022-09-02T05:41:16;98140.03;;;12.88;67.86
37142;BME280;23041;49.816;20.092;2022-09-02T05:43:46;98142.00;;;12.95;67.71
37142;BME280;23041;49.816;20.092;2022-09-02T05:46:15;98139.32;;;13.00;67.49
37142;BME280;23041;49.816;20.092;2022-09-02T05:48:43;98145.07;;;13.05;67.29
37142;BME280;23041;49.816;20.092;2022-09-02T05:51:29;98142.34;;;13.14;67.13
37142;BME280;23041;49.816;20.092;2022-09-02T05:54:09;98142.45;;;13.31;66.94
37142;BME280;23041;49.816;20.092;2022-09-02T05:56:40;98136.30;;;14.06;66.81
37142;BME280;23041;49.816;20.092;2022-09-02T05:59:07;98135.44;;;15.99;66.92
37142;BME280;23041;49.816;20.092;2022-09-02T06:01:35;98141.19;;;18.13;66.98
37142;BME280;23041;49.816;20.092;2022-09-02T06:04:04;98144.03;;;20.14;66.49
37142;BME280;23041;49.816;20.092;2022-09-02T06:06:31;98138.34;;;21.90;65.26
37142;BME280;23041;49.816;20.092;2022-09-02T06:08:58;98137.86;;;23.62;63.52
37142;BME280;23041;49.816;20.092;2022-09-02T06:11:26;98140.95;;;25.15;61.41
37142;BME280;23041;49.816;20.092;2022-09-02T06:13:53;98133.08;;;26.36;58.85
37142;BME280;23041;49.816;20.092;2022-09-02T06:16:21;98134.33;;;27.45;56.16
37142;BME280;23041;49.816;20.092;2022-09-02T06:18:49;98136.34;;;28.64;53.64
37142;BME280;23041;49.816;20.092;2022-09-02T06:21:17;98137.54;;;29.54;50.96
37142;BME280;23041;49.816;20.092;2022-09-02T06:23:46;98139.91;;;30.39;48.49
37142;BME280;23041;49.816;20.092;2022-09-02T06:26:14;98138.22;;;31.49;46.33
37142;BME280;23041;49.816;20.092;2022-09-02T06:28:42;98143.97;;;32.46;44.12
37142;BME280;23041;49.816;20.092;2022-09-02T06:31:16;98147.53;;;33.46;41.92
37142;BME280;23041;49.816;20.092;2022-09-02T06:33:41;98154.33;;;34.31;39.86
37142;BME280;23041;49.816;20.092;2022-09-02T06:36:11;98153.91;;;34.84;37.84
37142;BME280;23041;49.816;20.092;2022-09-02T06:38:42;98151.42;;;35.48;36.08
37142;BME280;23041;49.816;20.092;2022-09-02T06:41:12;98157.05;;;35.73;34.39
37142;BME280;23041;49.816;20.092;2022-09-02T06:43:40;98157.05;;;36.00;32.88
37142;BME280;23041;49.816;20.092;2022-09-02T06:46:07;98159.81;;;36.16;31.58
37142;BME280;23041;49.816;20.092;2022-09-02T06:48:34;98153.34;;;35.54;30.33
37142;BME280;23041;49.816;20.092;2022-09-02T06:51:00;98158.81;;;35.34;29.77
37142;BME280;23041;49.816;20.092;2022-09-02T06:53:27;98154.23;;;35.83;29.09
37142;BME280;23041;49.816;20.092;2022-09-02T06:55:53;98152.55;;;35.88;28.04
37142;BME280;23041;49.816;20.092;2022-09-02T06:58:19;98157.48;;;35.96;27.36
37142;BME280;23041;49.816;20.092;2022-09-02T07:00:46;98153.66;;;36.74;26.83
37142;BME280;23041;49.816;20.092;2022-09-02T07:03:13;98150.01;;;37.58;26.29
37142;BME280;23041;49.816;20.092;2022-09-02T07:06:04;98153.30;;;38.34;25.50
37142;BME280;23041;49.816;20.092;2022-09-02T07:08:37;98164.37;;;38.90;24.70
37142;BME280;23041;49.816;20.092;2022-09-02T07:11:16;98158.58;;;40.08;24.05
37142;BME280;23041;49.816;20.092;2022-09-02T07:13:49;98153.53;;;41.00;23.29
37142;BME280;23041;49.816;20.092;2022-09-02T07:16:16;98159.21;;;41.60;22.34
37142;BME280;23041;49.816;20.092;2022-09-02T07:18:43;98156.72;;;41.41;21.55
37142;BME280;23041;49.816;20.092;2022-09-02T07:21:10;98150.38;;;40.84;21.06
37142;BME280;23041;49.816;20.092;2022-09-02T07:23:37;98151.34;;;41.00;20.81
37142;BME280;23041;49.816;20.092;2022-09-02T07:26:13;98154.80;;;41.58;20.55
37142;BME280;23041;49.816;20.092;2022-09-02T07:28:41;98151.11;;;42.73;20.24
37142;BME280;23041;49.816;20.092;2022-09-02T07:31:09;98156.43;;;44.07;19.47
37142;BME280;23041;49.816;20.092;2022-09-02T07:33:36;98152.97;;;44.72;18.80
37142;BME280;23041;49.816;20.092;2022-09-02T07:36:06;98156.98;;;45.65;18.12
37142;BME280;23041;49.816;20.092;2022-09-02T07:38:35;98156.13;;;46.16;17.41
37142;BME280;23041;49.816;20.092;2022-09-02T07:41:03;98149.55;;;46.33;17.01
37142;BME280;23041;49.816;20.092;2022-09-02T07:43:31;98157.00;;;46.77;16.40
37142;BME280;23041;49.816;20.092;2022-09-02T07:45:59;98147.91;;;46.66;15.84
37142;BME280;23041;49.816;20.092;2022-09-02T07:48:26;98139.39;;;46.33;15.54
37142;BME280;23041;49.816;20.092;2022-09-02T07:50:53;98149.70;;;46.76;15.30
37142;BME280;23041;49.816;20.092;2022-09-02T07:53:20;98140.85;;;47.12;15.07
37142;BME280;23041;49.816;20.092;2022-09-02T07:55:47;98149.53;;;47.75;14.64
37142;BME280;23041;49.816;20.092;2022-09-02T07:58:16;98148.16;;;48.48;14.21
37142;BME280;23041;49.816;20.092;2022-09-02T08:00:45;98149.64;;;49.00;13.64
37142;BME280;23041;49.816;20.092;2022-09-02T08:03:13;98147.49;;;49.29;13.33
37142;BME280;23041;49.816;20.092;2022-09-02T08:05:40;98140.14;;;50.48;12.40
37142;BME280;23041;49.816;20.092;2022-09-02T08:08:09;98140.14;;;50.48;12.40
37142;BME280;23041;49.816;20.092;2022-09-02T08:10:35;98147.28;;;50.76;12.02
37142;BME280;23041;49.816;20.092;2022-09-02T08:13:03;98143.18;;;50.90;11.71
37142;BME280;23041;49.816;20.092;2022-09-02T08:15:32;98136.81;;;51.02;11.41
37142;BME280;23041;49.816;20.092;2022-09-02T08:18:01;98136.98;;;51.51;11.17
37142;BME280;23041;49.816;20.092;2022-09-02T08:20:28;98134.09;;;51.99;10.86
37142;BME280;23041;49.816;20.092;2022-09-02T08:22:56;98127.73;;;52.14;10.47
37142;BME280;23041;49.816;20.092;2022-09-02T08:25:23;98126.02;;;52.51;10.28
37142;BME280;23041;49.816;20.092;2022-09-02T08:27:52;98125.02;;;52.90;10.05
37142;BME280;23041;49.816;20.092;2022-09-02T08:30:19;98120.06;;;53.10;9.77
37142;BME280;23041;49.816;20.092;2022-09-02T08:32:46;98131.53;;;53.57;9.53
37142;BME280;23041;49.816;20.092;2022-09-02T08:35:12;98125.30;;;54.10;9.32
37142;BME280;23041;49.816;20.092;2022-09-02T08:37:39;98120.94;;;54.21;9.00
37142;BME280;23041;49.816;20.092;2022-09-02T08:40:12;98122.44;;;54.30;8.90
37142;BME280;23041;49.816;20.092;2022-09-02T08:42:43;98118.63;;;54.06;8.61
37142;BME280;23041;49.816;20.092;2022-09-02T08:45:21;98122.19;;;53.84;8.61
37142;BME280;23041;49.816;20.092;2022-09-02T08:48:01;98115.83;;;54.27;8.52
37142;BME280;23041;49.816;20.092;2022-09-02T08:50:38;98116.04;;;54.84;8.32
37142;BME280;23041;49.816;20.092;2022-09-02T08:53:15;98119.63;;;54.52;8.06
37142;BME280;23041;49.816;20.092;2022-09-02T08:55:59;98110.11;;;54.64;8.06
37142;BME280;23041;49.816;20.092;2022-09-02T08:58:28;98112.38;;;54.86;7.97
37142;BME280;23041;49.816;20.092;2022-09-02T09:01:12;98102.14;;;55.04;7.96
37142;BME280;23041;49.816;20.092;2022-09-02T09:07:09;98108.67;;;54.72;7.58
37142;BME280;23041;49.816;20.092;2022-09-02T09:13:11;98101.22;;;54.40;6.98
37142;BME280;23041;49.816;20.092;2022-09-02T09:22:01;98081.06;;;47.28;8.59
37142;BME280;23041;49.816;20.092;2022-09-02T09:24:40;98085.36;;;46.83;8.93
37142;BME280;23041;49.816;20.092;2022-09-02T09:27:14;98090.73;;;45.58;9.06
37142;BME280;23041;49.816;20.092;2022-09-02T09:29:42;98083.06;;;45.47;9.36
37142;BME280;23041;49.816;20.092;2022-09-02T09:34:58;98074.18;;;46.16;9.71
37142;BME280;23041;49.816;20.092;2022-09-02T09:39:59;98074.92;;;46.17;10.10
37142;BME280;23041;49.816;20.092;2022-09-02T09:42:35;98077.38;;;46.63;10.17
37142;BME280;23041;49.816;20.092;2022-09-02T09:45:32;98078.58;;;45.27;10.11
37142;BME280;23041;49.816;20.092;2022-09-02T09:53:33;98069.11;;;42.64;11.04
37142;BME280;23041;49.816;20.092;2022-09-02T09:56:22;98060.66;;;41.75;11.46
37142;BME280;23041;49.816;20.092;2022-09-02T10:01:31;98062.51;;;42.48;11.61
37142;BME280;23041;49.816;20.092;2022-09-02T10:04:42;98065.63;;;41.23;11.82
37142;BME280;23041;49.816;20.092;2022-09-02T10:06:37;98063.73;;;41.27;12.11
37142;BME280;23041;49.816;20.092;2022-09-02T10:11:58;98060.95;;;44.54;11.61
37142;BME280;23041;49.816;20.092;2022-09-02T10:17:45;98059.36;;;40.30;11.81
37142;BME280;23041;49.816;20.092;2022-09-02T10:20:44;98054.89;;;39.26;12.37
37142;BME280;23041;49.816;20.092;2022-09-02T10:23:39;98045.77;;;37.63;13.03
37142;BME280;23041;49.816;20.092;2022-09-02T10:26:15;98057.68;;;38.09;13.42
37142;BME280;23041;49.816;20.092;2022-09-02T10:35:41;98048.93;;;33.74;15.22
37142;BME280;23041;49.816;20.092;2022-09-02T10:40:22;98043.95;;;33.82;15.82
37142;BME280;23041;49.816;20.092;2022-09-02T10:43:07;98043.81;;;34.38;16.30
37142;BME280;23041;49.816;20.092;2022-09-02T10:45:46;98042.23;;;36.29;16.18
37142;BME280;23041;49.816;20.092;2022-09-02T10:48:33;98045.53;;;34.93;15.98
37142;BME280;23041;49.816;20.092;2022-09-02T10:56:30;98048.11;;;30.06;17.71
37142;BME280;23041;49.816;20.092;2022-09-02T10:59:11;98055.47;;;29.20;18.47
37142;BME280;23041;49.816;20.092;2022-09-02T11:01:47;98049.44;;;28.64;19.21
37142;BME280;23041;49.816;20.092;2022-09-02T11:04:36;98040.64;;;28.41;19.83
37142;BME280;23041;49.816;20.092;2022-09-02T11:07:05;98041.84;;;29.32;20.31
37142;BME280;23041;49.816;20.092;2022-09-02T11:12:28;98043.94;;;29.86;20.00
37142;BME280;23041;49.816;20.092;2022-09-02T11:15:22;98047.29;;;28.90;20.29
37142;BME280;23041;49.816;20.092;2022-09-02T11:20:47;98049.17;;;27.84;21.17
37142;BME280;23041;49.816;20.092;2022-09-02T11:23:35;98035.08;;;27.52;21.52
37142;BME280;23041;49.816;20.092;2022-09-02T11:26:23;98030.03;;;27.64;21.91
37142;BME280;23041;49.816;20.092;2022-09-02T11:29:50;98033.24;;;27.86;22.32
37142;BME280;23041;49.816;20.092;2022-09-02T11:35:19;98023.83;;;27.40;22.58
37142;BME280;23041;49.816;20.092;2022-09-02T11:37:49;98017.72;;;27.36;22.76
37142;BME280;23041;49.816;20.092;2022-09-02T11:40:30;98014.55;;;27.70;22.74
37142;BME280;23041;49.816;20.092;2022-09-02T11:54:10;98016.22;;;25.58;23.90
37142;BME280;23041;49.816;20.092;2022-09-02T11:56:42;98018.41;;;25.53;24.30
37142;BME280;23041;49.816;20.092;2022-09-02T12:00:00;98020.95;;;25.56;24.56
37142;BME280;23041;49.816;20.092;2022-09-02T12:02:10;98028.03;;;25.45;24.79
37142;BME280;23041;49.816;20.092;2022-09-02T12:04:38;98020.53;;;25.00;25.01
37142;BME280;23041;49.816;20.092;2022-09-02T12:07:20;98015.97;;;24.92;25.34
37142;BME280;23041;49.816;20.092;2022-09-02T12:09:48;98016.25;;;24.83;25.64
37142;BME280;23041;49.816;20.092;2022-09-02T12:15:15;98013.29;;;24.93;25.97
37142;BME280;23041;49.816;20.092;2022-09-02T12:23:09;98001.30;;;25.98;25.85
37142;BME280;23041;49.816;20.092;2022-09-02T12:25:56;97997.33;;;26.13;25.61
37142;BME280;23041;49.816;20.092;2022-09-02T12:28:28;97996.69;;;26.01;25.63
37142;BME280;23041;49.816;20.092;2022-09-02T12:33:36;97997.25;;;25.46;25.50
37142;BME280;23041;49.816;20.092;2022-09-02T12:36:00;97990.10;;;25.28;25.56
37142;BME280;23041;49.816;20.092;2022-09-02T12:38:34;97986.52;;;25.09;25.65
37142;BME280;23041;49.816;20.092;2022-09-02T12:43:49;97989.02;;;25.18;25.74
37142;BME280;23041;49.816;20.092;2022-09-02T12:52:09;97976.06;;;24.81;26.01
37142;BME280;23041;49.816;20.092;2022-09-02T12:54:40;97979.28;;;24.44;26.08
37142;BME280;23041;49.816;20.092;2022-09-02T12:57:09;97972.35;;;24.11;26.19
37142;BME280;23041;49.816;20.092;2022-09-02T12:59:38;97977.49;;;23.79;26.28
37142;BME280;23041;49.816;20.092;2022-09-02T13:05:18;97970.09;;;23.37;26.82
37142;BME280;23041;49.816;20.092;2022-09-02T13:16:42;97970.16;;;22.61;27.60
37142;BME280;23041;49.816;20.092;2022-09-02T13:19:20;97972.56;;;22.52;27.81
37142;BME280;23041;49.816;20.092;2022-09-02T13:30:21;97970.50;;;22.74;28.68
37142;BME280;23041;49.816;20.092;2022-09-02T13:33:04;97960.87;;;22.86;28.77
37142;BME280;23041;49.816;20.092;2022-09-02T13:35:36;97971.73;;;23.05;28.94
37142;BME280;23041;49.816;20.092;2022-09-02T13:38:10;97971.19;;;23.01;28.79
37142;BME280;23041;49.816;20.092;2022-09-02T13:40:39;97976.54;;;22.94;28.72
37142;BME280;23041;49.816;20.092;2022-09-02T13:43:17;97965.73;;;23.02;28.69
37142;BME280;23041;49.816;20.092;2022-09-02T13:45:46;97953.78;;;23.18;28.56
37142;BME280;23041;49.816;20.092;2022-09-02T13:48:19;97962.84;;;23.24;28.46
37142;BME280;23041;49.816;20.092;2022-09-02T13:50:50;97954.18;;;23.22;28.41
37142;BME280;23041;49.816;20.092;2022-09-02T13:53:39;97962.80;;;23.01;28.44
37142;BME280;23041;49.816;20.092;2022-09-02T13:56:09;97953.64;;;23.06;28.60
37142;BME280;23041;49.816;20.092;2022-09-02T13:58:48;97958.37;;;23.22;28.71
37142;BME280;23041;49.816;20.092;2022-09-02T14:01:24;97959.28;;;23.40;28.82
37142;BME280;23041;49.816;20.092;2022-09-02T14:03:57;97953.42;;;23.66;28.88
37142;BME280;23041;49.816;20.092;2022-09-02T14:06:27;97952.15;;;23.72;28.79
37142;BME280;23041;49.816;20.092;2022-09-02T14:08:57;97952.56;;;23.53;28.63
37142;BME280;23041;49.816;20.092;2022-09-02T14:11:26;97952.78;;;23.38;28.61
37142;BME280;23041;49.816;20.092;2022-09-02T14:13:54;97948.58;;;23.44;28.83
37142;BME280;23041;49.816;20.092;2022-09-02T14:16:34;97945.28;;;23.40;28.90
37142;BME280;23041;49.816;20.092;2022-09-02T14:21:54;97945.65;;;23.32;28.89
37142;BME280;23041;49.816;20.092;2022-09-02T14:24:25;97943.25;;;23.29;29.02
37142;BME280;23041;49.816;20.092;2022-09-02T14:26:57;97950.88;;;23.29;29.26
37142;BME280;23041;49.816;20.092;2022-09-02T14:29:27;97947.67;;;23.14;29.40
37142;BME280;23041;49.816;20.092;2022-09-02T14:34:44;97946.61;;;22.84;29.43
37142;BME280;23041;49.816;20.092;2022-09-02T14:37:22;97943.33;;;22.64;29.32
37142;BME280;23041;49.816;20.092;2022-09-02T14:40:08;97949.30;;;22.56;29.29
37142;BME280;23041;49.816;20.092;2022-09-02T14:42:45;97953.02;;;22.63;29.45
37142;BME280;23041;49.816;20.092;2022-09-02T14:45:14;97944.64;;;22.69;29.67
37142;BME280;23041;49.816;20.092;2022-09-02T14:48:09;97942.41;;;22.84;29.92
37142;BME280;23041;49.816;20.092;2022-09-02T14:50:41;97943.58;;;22.88;30.01
37142;BME280;23041;49.816;20.092;2022-09-02T14:53:09;97943.68;;;22.89;30.00
37142;BME280;23041;49.816;20.092;2022-09-02T14:55:48;97944.30;;;22.83;30.03
37142;BME280;23041;49.816;20.092;2022-09-02T14:58:18;97940.24;;;22.84;30.12
37142;BME280;23041;49.816;20.092;2022-09-02T15:00:49;97935.67;;;22.81;30.18
37142;BME280;23041;49.816;20.092;2022-09-02T15:03:19;97940.05;;;22.71;30.30
37142;BME280;23041;49.816;20.092;2022-09-02T15:05:49;97942.31;;;22.56;30.37